Aérodrome :
LOGIN :

S'inscrire | Disclaimer

   EN    FR    IT 

 










Légende :    VFR   VFR Marginal   IFR   IFR Intensif   IFR Très Intensif
Visi : 
Plafond : 
>= 8 km
>= 3000ft
5 à 8 km
1000 à 3000 ft
1500m à 5 km
500 à 1000 ft
800 à 1500m
200 à 500 ft
< 800m
< 200 ft
Symboles :   Orages  Brouillard  Fortes neiges  Fortes précipitations  Vent > 20 kt
SIGMETs :   Divers  Orages  Givrage  Turbulence  Onde Orograph.  Cendres Volcan.







- Altitude de l'aérodrome : 1273 ft
- Code IATA : LJU


LJLJ - Ljubljana

DERNIER METAR :
  • 130500Z VRB01KT 9999 SCT020 BKN160 06/06 Q1024 R30/D NOSIG

METARs EXPIRÉS :
  • 130430Z VRB02KT 9999 SCT020 BKN220 06/05 Q1024 NOSIG
  • 130400Z 27003KT 9999 SCT020 BKN220 06/05 Q1024 NOSIG
  • 130330Z 28004KT 9999 FEW020 SCT220 06/05 Q1025 NOSIG
  • 130300Z 28004KT 9999 FEW020 SCT220 06/05 Q1025 NOSIG
  • 130230Z VRB02KT 9999 FEW020 SCT220 05/05 Q1025 NOSIG

TAF TAF LJLJ
Valide du 13 à 03h jusqu'au 14 à 03h UTC


130200Z 1303/1403 30002KT 9999 FEW033 SCT120
TEMPO 1303/1321 BKN033
PROB30
TEMPO 1303/1307 3500 BR
BECMG 1310/1312 22005KT
BECMG 1318/1320 30004KT
BECMG 1321/1324 BKN030
Pas de NOTAMs connus pour ce terrain.



MET'MAP, la Météo Aéronautique d'un coup d'oeil ! - Copyright ORBIFLY Décembre 2007 - Disclaimer

ORBIFLY MET'MAP TEAM :

Programmation & Développement : Alexandra Zaïnal
Conception & Développement : Baudouin d'Aumeries
Co-Programmation & Développement : Marc-Olivier Méhu
Soutien technique & logistique : Manuel Goepfert

Contact : metmap@orbifly.com




SOURCES & CREDITS :

   NOAA